Time;durP1;ratioP1;P1;durP2;ratioP2;P2;SDS_P1;SDS_P2;PMS_P1;PMS_P2;Temp;Humidity;BMP_temperature;BMP_pressure;BME280_temperature;BME280_humidity;BME280_pressure;Samples;Min_cycle;Max_cycle;Signal;HPM_P1;HPM_P2
2023/03/04 00:02:05;;;;;;;22.35;10.75;;;13.90;43.30;;;;;;5088655;28;45249;-68
2023/03/04 00:04:32;;;;;;;19.52;11.32;;;13.90;43.30;;;;;;5088573;28;44806;-68
2023/03/04 00:07:00;;;;;;;20.13;11.57;;;13.90;43.40;;;;;;5088681;28;45428;-68
2023/03/04 00:09:31;;;;;;;16.67;10.18;;;13.80;43.30;;;;;;5087379;28;46336;-68
2023/03/04 00:11:58;;;;;;;17.58;10.88;;;13.80;43.30;;;;;;5069446;28;45312;-68
2023/03/04 00:14:29;;;;;;;19.40;12.13;;;13.80;43.30;;;;;;5087982;28;45372;-68
2023/03/04 00:16:56;;;;;;;17.50;10.45;;;13.80;43.30;;;;;;5088365;28;45161;-68
2023/03/04 00:19:23;;;;;;;16.60;9.90;;;13.70;43.30;;;;;;5087435;28;46194;-68
2023/03/04 00:21:50;;;;;;;17.92;11.13;;;13.70;43.90;;;;;;5087503;28;45375;-68
2023/03/04 00:24:21;;;;;;;14.45;10.25;;;13.70;43.30;;;;;;5087952;28;45412;-68
2023/03/04 00:26:49;;;;;;;16.95;11.00;;;13.70;43.40;;;;;;5087963;28;45548;-68
2023/03/04 00:29:17;;;;;;;18.70;10.80;;;13.60;43.30;;;;;;5087785;28;46729;-68
2023/03/04 00:31:44;;;;;;;18.00;11.07;;;13.60;43.30;;;;;;5087754;28;45341;-67
2023/03/04 00:34:10;;;;;;;17.25;10.93;;;13.60;43.40;;;;;;5087782;28;45368;-67
2023/03/04 00:36:37;;;;;;;18.92;11.13;;;13.60;43.40;;;;;;5087942;28;45506;-68
2023/03/04 00:39:04;;;;;;;17.17;10.85;;;13.50;43.30;;;;;;5087702;28;45296;-72
2023/03/04 00:41:34;;;;;;;18.00;10.73;;;13.60;43.30;;;;;;5087206;28;45434;-67
2023/03/04 00:44:10;;;;;;;16.33;10.30;;;13.50;43.30;;;;;;5087444;28;45230;-68
2023/03/04 00:46:37;;;;;;;16.33;10.27;;;13.50;43.30;;;;;;5087338;28;45261;-68
2023/03/04 00:49:04;;;;;;;19.40;10.68;;;13.50;43.30;;;;;;5087237;28;45446;-68
2023/03/04 00:51:31;;;;;;;17.23;10.48;;;13.40;43.90;;;;;;5087222;28;45588;-68
2023/03/04 00:53:57;;;;;;;16.77;9.77;;;13.40;43.20;;;;;;5087099;28;45434;-68
2023/03/04 00:56:24;;;;;;;15.80;9.77;;;13.40;43.20;;;;;;5086389;28;45417;-68
2023/03/04 00:58:53;;;;;;;17.60;10.20;;;13.40;43.30;;;;;;5086301;28;45297;-68
2023/03/04 01:01:20;;;;;;;16.70;10.00;;;13.40;43.20;;;;;;5086440;28;45295;-68
2023/03/04 01:03:49;;;;;;;18.85;11.07;;;13.30;43.20;;;;;;5087138;28;45379;-68
2023/03/04 01:06:16;;;;;;;19.65;9.93;;;13.30;43.30;;;;;;5087163;28;45533;-69
2023/03/04 01:08:45;;;;;;;17.80;10.35;;;13.30;43.30;;;;;;5086937;28;45604;-68
2023/03/04 01:11:12;;;;;;;18.73;10.18;;;13.30;43.30;;;;;;5086604;28;45473;-68
2023/03/04 01:13:39;;;;;;;17.98;10.40;;;13.30;43.30;;;;;;5086910;28;45385;-68
2023/03/04 01:16:09;;;;;;;18.23;10.13;;;13.20;43.30;;;;;;5086803;28;45477;-68
2023/03/04 01:18:39;;;;;;;16.63;9.93;;;13.20;43.40;;;;;;5086535;28;45367;-68
2023/03/04 01:21:09;;;;;;;14.75;9.55;;;13.20;43.30;;;;;;5085710;28;45347;-68
2023/03/04 01:23:38;;;;;;;17.00;10.18;;;13.20;43.30;;;;;;5086900;28;45405;-70
2023/03/04 01:26:05;;;;;;;14.50;9.32;;;13.10;43.20;;;;;;5086941;28;45332;-68
2023/03/04 01:28:34;;;;;;;16.08;9.57;;;13.20;43.30;;;;;;5086692;28;46163;-68
2023/03/04 01:31:01;;;;;;;13.38;9.50;;;13.10;43.30;;;;;;5086150;28;45456;-68
2023/03/04 01:33:30;;;;;;;14.43;8.88;;;13.10;43.30;;;;;;5086453;28;45329;-68
2023/03/04 01:35:57;;;;;;;14.95;9.48;;;13.10;43.30;;;;;;5087147;28;45218;-68
2023/03/04 01:38:24;;;;;;;15.25;9.45;;;13.00;43.30;;;;;;5086279;28;45242;-68
2023/03/04 01:40:51;;;;;;;15.35;9.93;;;13.00;43.30;;;;;;5086602;28;45297;-68
2023/03/04 01:43:20;;;;;;;14.82;9.52;;;13.00;43.30;;;;;;5086656;28;45371;-68
2023/03/04 01:45:47;;;;;;;14.68;9.27;;;13.00;43.30;;;;;;5086207;28;45492;-68
2023/03/04 01:48:14;;;;;;;18.02;9.65;;;13.00;43.30;;;;;;5065524;28;45198;-68
2023/03/04 01:50:42;;;;;;;16.55;10.60;;;12.90;43.20;;;;;;5066085;28;45357;-68
2023/03/04 01:53:11;;;;;;;15.38;9.82;;;12.90;43.20;;;;;;5066254;28;45394;-68
2023/03/04 01:55:38;;;;;;;14.77;9.40;;;12.90;43.20;;;;;;5066454;28;45337;-68
2023/03/04 01:58:05;;;;;;;15.60;9.52;;;12.80;43.20;;;;;;5065841;28;45481;-68
2023/03/04 02:00:32;;;;;;;14.57;9.67;;;12.90;43.20;;;;;;5065685;28;45391;-69
2023/03/04 02:03:00;;;;;;;14.15;9.05;;;12.80;43.20;;;;;;5066293;28;45317;-68
2023/03/04 02:05:27;;;;;;;17.07;9.70;;;12.80;43.20;;;;;;5065913;28;45238;-68
2023/03/04 02:07:55;;;;;;;15.35;9.20;;;12.80;43.20;;;;;;5067348;28;45222;-69
2023/03/04 02:10:25;;;;;;;14.50;8.70;;;12.80;43.30;;;;;;5066665;28;45580;-68
2023/03/04 02:12:52;;;;;;;14.35;8.93;;;12.70;43.20;;;;;;5069288;28;45300;-68
2023/03/04 02:15:19;;;;;;;15.47;8.80;;;12.70;43.20;;;;;;5069338;28;45562;-68
2023/03/04 02:17:46;;;;;;;15.10;8.77;;;12.70;43.20;;;;;;5068904;28;46399;-68
2023/03/04 02:20:19;;;;;;;16.83;9.45;;;12.70;43.20;;;;;;5069295;28;45433;-68
2023/03/04 02:22:50;;;;;;;12.47;8.63;;;12.60;43.20;;;;;;5069281;28;45495;-69
2023/03/04 02:25:20;;;;;;;16.47;9.63;;;12.60;43.20;;;;;;5069368;28;45417;-68
2023/03/04 02:27:49;;;;;;;14.83;9.23;;;12.60;43.20;;;;;;5068863;28;45396;-68
2023/03/04 02:30:16;;;;;;;14.53;8.73;;;12.60;43.30;;;;;;5068979;28;45914;-68
2023/03/04 02:32:42;;;;;;;14.47;9.10;;;12.60;43.40;;;;;;5069128;28;45255;-68
2023/03/04 02:35:10;;;;;;;14.13;9.23;;;12.50;43.30;;;;;;5068990;28;45404;-67
2023/03/04 02:37:37;;;;;;;12.30;8.43;;;12.50;43.20;;;;;;5067991;28;45379;-68
2023/03/04 02:40:05;;;;;;;12.03;8.27;;;12.50;43.20;;;;;;5069073;28;45390;-68
2023/03/04 02:42:32;;;;;;;15.47;9.07;;;12.50;43.30;;;;;;5068872;28;44744;-68
2023/03/04 02:45:03;;;;;;;15.07;8.93;;;12.50;43.30;;;;;;5069109;28;45228;-68
2023/03/04 02:47:30;;;;;;;14.27;8.63;;;12.50;43.30;;;;;;5068692;28;45365;-68
2023/03/04 02:49:57;;;;;;;15.07;8.40;;;12.40;43.30;;;;;;5068309;28;45306;-68
2023/03/04 02:52:25;;;;;;;13.87;8.87;;;12.40;43.30;;;;;;5066291;28;45215;-68
2023/03/04 02:54:52;;;;;;;13.80;8.77;;;12.40;43.30;;;;;;5068652;28;45584;-68
2023/03/04 02:57:18;;;;;;;15.40;8.80;;;12.40;43.40;;;;;;5068475;28;46326;-68
2023/03/04 02:59:45;;;;;;;14.13;8.73;;;12.40;43.40;;;;;;5068581;28;45522;-68
2023/03/04 03:02:13;;;;;;;13.40;8.40;;;12.40;43.30;;;;;;5068522;28;45301;-68
2023/03/04 03:04:41;;;;;;;13.93;8.80;;;12.30;43.30;;;;;;5068796;28;45479;-68
2023/03/04 03:07:07;;;;;;;12.60;8.53;;;12.30;43.30;;;;;;5068233;28;45276;-68
2023/03/04 03:09:34;;;;;;;13.53;8.93;;;12.30;43.30;;;;;;5068161;28;45404;-68
2023/03/04 03:12:01;;;;;;;13.17;8.40;;;12.30;43.40;;;;;;5065777;28;45348;-69
2023/03/04 03:14:28;;;;;;;12.47;8.30;;;12.30;43.40;;;;;;5068190;28;45371;-68
2023/03/04 03:16:55;;;;;;;14.17;8.47;;;12.20;43.30;;;;;;5068373;28;45463;-69
2023/03/04 03:19:23;;;;;;;14.50;8.47;;;12.20;43.30;;;;;;5066322;28;45406;-68
2023/03/04 03:21:50;;;;;;;13.40;8.37;;;12.20;43.30;;;;;;5064868;28;45367;-68
2023/03/04 03:24:17;;;;;;;10.43;7.63;;;12.20;43.30;;;;;;5067637;28;45304;-68
2023/03/04 03:26:43;;;;;;;11.70;7.87;;;12.20;43.30;;;;;;5067277;28;45271;-68
2023/03/04 03:29:13;;;;;;;17.27;8.77;;;12.20;43.30;;;;;;5067254;28;45278;-68
2023/03/04 03:31:40;;;;;;;13.40;8.20;;;12.10;43.30;;;;;;5067401;28;45330;-68
2023/03/04 03:34:07;;;;;;;13.03;8.83;;;12.10;43.30;;;;;;5067395;28;45306;-68
2023/03/04 03:36:35;;;;;;;11.27;8.53;;;12.10;43.20;;;;;;5067030;28;46405;-68
2023/03/04 03:39:02;;;;;;;13.00;8.40;;;12.10;43.20;;;;;;5067112;28;45415;-68
2023/03/04 03:41:29;;;;;;;10.90;8.07;;;12.10;43.30;;;;;;5067242;28;45328;-68
2023/03/04 03:43:56;;;;;;;14.03;8.27;;;12.00;43.20;;;;;;5067350;28;45337;-68
2023/03/04 03:46:23;;;;;;;15.83;8.77;;;12.00;43.20;;;;;;5066954;28;45321;-68
2023/03/04 03:48:49;;;;;;;14.90;8.30;;;12.00;43.80;;;;;;5067008;28;45204;-68
2023/03/04 03:51:16;;;;;;;11.27;7.80;;;12.00;43.20;;;;;;5067132;28;45258;-68
2023/03/04 03:53:45;;;;;;;15.67;8.73;;;12.00;43.20;;;;;;5067103;28;45376;-68
2023/03/04 03:56:11;;;;;;;14.90;7.90;;;11.90;43.20;;;;;;5066777;28;45393;-68
2023/03/04 03:58:38;;;;;;;12.40;8.07;;;11.90;43.30;;;;;;5066819;28;45273;-68
2023/03/04 04:01:05;;;;;;;11.63;7.40;;;11.90;43.30;;;;;;5066831;28;45216;-68
2023/03/04 04:03:32;;;;;;;15.13;9.00;;;11.90;43.30;;;;;;5067159;28;45288;-71
2023/03/04 04:05:59;;;;;;;14.13;8.53;;;11.90;43.20;;;;;;5066564;28;46375;-68
2023/03/04 04:08:27;;;;;;;11.10;7.13;;;11.90;43.20;;;;;;5066697;28;45380;-68
2023/03/04 04:10:55;;;;;;;13.03;8.33;;;11.90;43.30;;;;;;5064382;28;45515;-68
2023/03/04 04:13:22;;;;;;;14.37;7.87;;;11.80;43.20;;;;;;5066761;28;45450;-68
2023/03/04 04:15:52;;;;;;;14.10;8.63;;;11.80;43.20;;;;;;5066069;28;45337;-68
2023/03/04 04:18:19;;;;;;;14.67;9.57;;;11.80;43.20;;;;;;5066690;28;45200;-68
2023/03/04 04:20:46;;;;;;;13.03;7.90;;;11.80;43.20;;;;;;5066766;28;45525;-68
2023/03/04 04:23:13;;;;;;;14.03;8.20;;;11.80;43.20;;;;;;5066625;28;45424;-68
2023/03/04 04:25:40;;;;;;;14.60;8.77;;;11.70;43.20;;;;;;5066377;28;45446;-68
2023/03/04 04:28:08;;;;;;;14.60;7.87;;;11.70;43.20;;;;;;5066542;28;45401;-68
2023/03/04 04:30:35;;;;;;;11.70;8.03;;;11.70;43.20;;;;;;5066159;28;45319;-69
2023/03/04 04:33:03;;;;;;;11.93;7.97;;;11.70;43.20;;;;;;5066411;28;45403;-68
2023/03/04 04:35:30;;;;;;;11.53;7.57;;;11.70;43.20;;;;;;5066219;28;45318;-68
2023/03/04 04:37:57;;;;;;;13.83;8.37;;;11.70;43.30;;;;;;5066441;28;45337;-68
2023/03/04 04:40:24;;;;;;;14.23;8.43;;;11.60;43.20;;;;;;5066393;28;45253;-68
2023/03/04 04:42:50;;;;;;;14.47;8.70;;;11.60;43.20;;;;;;5066448;28;45312;-68
2023/03/04 04:45:19;;;;;;;13.63;8.63;;;11.60;43.20;;;;;;5066062;28;46492;-68
2023/03/04 04:47:45;;;;;;;15.17;8.47;;;11.60;43.20;;;;;;5066088;28;45375;-68
2023/03/04 04:50:12;;;;;;;13.87;8.73;;;11.60;43.20;;;;;;5066528;28;45273;-68
2023/03/04 04:52:39;;;;;;;14.63;8.30;;;11.60;43.20;;;;;;5066316;28;45506;-68
2023/03/04 04:55:07;;;;;;;13.07;8.10;;;11.60;43.20;;;;;;5065757;28;45255;-68
2023/03/04 04:57:34;;;;;;;11.97;8.00;;;11.50;43.10;;;;;;5065961;28;45321;-68
2023/03/04 05:00:01;;;;;;;15.40;8.40;;;11.50;43.10;;;;;;5066238;28;45387;-68
2023/03/04 05:02:30;;;;;;;14.97;8.93;;;11.50;43.10;;;;;;5065971;28;45314;-68
2023/03/04 05:04:56;;;;;;;12.33;7.70;;;11.50;43.10;;;;;;5065727;28;45410;-68
2023/03/04 05:07:23;;;;;;;13.80;7.93;;;11.40;43.10;;;;;;5065768;28;45308;-67
2023/03/04 05:09:50;;;;;;;16.27;8.93;;;11.40;43.10;;;;;;5065882;28;45305;-68
2023/03/04 05:12:17;;;;;;;12.97;8.17;;;11.40;43.10;;;;;;5065917;28;45525;-68
2023/03/04 05:14:44;;;;;;;13.23;8.27;;;11.40;43.10;;;;;;5065246;28;45266;-68
2023/03/04 05:17:11;;;;;;;11.60;7.93;;;11.40;43.10;;;;;;5065467;28;45346;-68
2023/03/04 05:19:39;;;;;;;15.50;8.13;;;11.40;43.10;;;;;;5065925;28;45273;-68
2023/03/04 05:22:06;;;;;;;13.33;7.77;;;11.40;43.10;;;;;;5066043;28;45384;-68
2023/03/04 05:24:33;;;;;;;12.47;8.07;;;11.30;43.10;;;;;;5065269;28;46709;-68
2023/03/04 05:27:00;;;;;;;11.87;7.83;;;11.30;43.10;;;;;;5065940;28;45256;-68
2023/03/04 05:29:27;;;;;;;13.33;8.10;;;11.30;43.10;;;;;;5065744;28;45325;-68
2023/03/04 05:31:54;;;;;;;14.37;8.73;;;11.30;43.10;;;;;;5065623;28;45393;-68
2023/03/04 05:34:21;;;;;;;12.60;7.93;;;11.30;43.10;;;;;;5065165;28;45373;-68
2023/03/04 05:36:49;;;;;;;13.93;7.93;;;11.30;43.10;;;;;;5065415;28;45263;-68
2023/03/04 05:39:16;;;;;;;13.37;8.83;;;11.30;43.20;;;;;;5065556;28;45289;-68
2023/03/04 05:41:43;;;;;;;12.73;8.47;;;11.20;43.10;;;;;;5062249;28;45471;-68
2023/03/04 05:44:10;;;;;;;14.57;8.37;;;11.20;43.10;;;;;;5065094;28;47632;-68
2023/03/04 05:46:37;;;;;;;14.87;7.80;;;11.20;43.20;;;;;;5065358;28;44964;-68
2023/03/04 05:49:03;;;;;;;12.07;7.30;;;11.20;43.20;;;;;;5065403;28;45389;-68
2023/03/04 05:51:30;;;;;;;11.10;7.50;;;11.20;43.20;;;;;;5065411;28;45242;-68
2023/03/04 05:53:58;;;;;;;12.77;8.10;;;11.20;43.20;;;;;;5065013;28;46294;-68
2023/03/04 05:56:26;;;;;;;14.13;7.50;;;11.10;43.20;;;;;;5065055;28;45455;-68
2023/03/04 05:58:52;;;;;;;12.07;7.83;;;11.10;43.20;;;;;;5065309;28;45388;-68
2023/03/04 06:01:19;;;;;;;14.03;8.20;;;11.10;43.20;;;;;;5065375;28;45321;-68
2023/03/04 06:03:47;;;;;;;15.80;8.30;;;11.10;43.20;;;;;;5064827;28;47379;-68
2023/03/04 06:06:14;;;;;;;12.93;7.83;;;11.10;43.30;;;;;;5065033;28;45295;-68
2023/03/04 06:08:41;;;;;;;13.47;7.90;;;11.10;43.30;;;;;;5065104;28;45289;-68
2023/03/04 06:11:09;;;;;;;13.33;8.17;;;11.00;43.20;;;;;;5065245;28;45346;-68
2023/03/04 06:13:37;;;;;;;13.07;7.20;;;11.00;43.20;;;;;;5064696;28;47383;-68
2023/03/04 06:16:04;;;;;;;14.57;7.90;;;11.00;43.20;;;;;;5064365;28;45486;-68
2023/03/04 06:18:31;;;;;;;14.87;7.67;;;11.00;43.20;;;;;;5065017;28;45306;-68
2023/03/04 06:20:58;;;;;;;12.80;7.37;;;11.00;43.20;;;;;;5064954;28;45647;-68
2023/03/04 06:23:25;;;;;;;14.37;7.67;;;11.00;43.20;;;;;;5064645;28;45535;-68
2023/03/04 06:25:52;;;;;;;12.90;7.90;;;10.90;43.20;;;;;;5064886;28;45250;-68
2023/03/04 06:28:21;;;;;;;13.30;7.77;;;10.90;43.20;;;;;;5064778;28;45304;-68
2023/03/04 06:30:48;;;;;;;12.03;7.60;;;10.90;43.30;;;;;;5065180;28;45329;-68
2023/03/04 06:33:14;;;;;;;12.30;8.00;;;10.90;43.20;;;;;;5064292;28;46353;-68
2023/03/04 06:35:41;;;;;;;11.10;7.00;;;10.90;43.20;;;;;;5064479;28;45369;-68
2023/03/04 06:38:08;;;;;;;14.83;8.10;;;10.90;43.20;;;;;;5064674;28;45274;-68
2023/03/04 06:40:35;;;;;;;11.57;7.83;;;10.90;43.30;;;;;;5064982;28;45417;-68
2023/03/04 06:43:02;;;;;;;12.77;8.10;;;10.90;43.30;;;;;;5064619;28;45489;-68
2023/03/04 06:45:30;;;;;;;15.20;8.37;;;10.90;43.30;;;;;;5064490;28;45328;-68
2023/03/04 06:47:57;;;;;;;12.47;7.87;;;10.80;43.30;;;;;;5064946;28;45281;-68
2023/03/04 06:50:24;;;;;;;15.33;8.93;;;10.80;43.20;;;;;;5064649;28;45666;-68
2023/03/04 06:52:51;;;;;;;12.83;8.10;;;10.80;43.30;;;;;;5064276;28;45368;-68
2023/03/04 06:55:18;;;;;;;10.27;7.57;;;10.80;43.30;;;;;;5067838;28;45471;-68
2023/03/04 06:57:45;;;;;;;15.60;8.23;;;10.80;43.90;;;;;;5068180;28;45308;-68
2023/03/04 07:00:13;;;;;;;12.63;7.70;;;10.80;43.40;;;;;;5068398;28;45458;-68
2023/03/04 07:02:41;;;;;;;12.43;8.57;;;10.80;43.30;;;;;;5067731;28;46331;-68
2023/03/04 07:05:09;;;;;;;14.77;7.53;;;10.80;43.90;;;;;;5067820;28;45500;-67
2023/03/04 07:07:36;;;;;;;11.97;8.10;;;10.80;43.40;;;;;;5068038;28;45285;-68
2023/03/04 07:10:03;;;;;;;14.50;8.07;;;10.80;43.40;;;;;;5068119;28;45488;-67
2023/03/04 07:12:29;;;;;;;10.63;6.97;;;10.80;44.00;;;;;;5067608;28;46390;-67
2023/03/04 07:14:56;;;;;;;12.80;7.67;;;10.80;43.50;;;;;;5067319;28;45429;-67
2023/03/04 07:17:23;;;;;;;13.23;7.93;;;10.80;43.40;;;;;;5067944;28;45286;-68
2023/03/04 07:19:51;;;;;;;13.47;7.67;;;10.80;43.40;;;;;;5067897;28;45487;-68
2023/03/04 07:22:18;;;;;;;10.40;7.73;;;10.80;43.40;;;;;;5067580;28;46842;-68
2023/03/04 07:24:45;;;;;;;11.60;7.93;;;10.80;43.40;;;;;;5067557;28;45356;-68
2023/03/04 07:27:12;;;;;;;12.33;7.40;;;10.80;43.40;;;;;;5067622;28;45362;-68
2023/03/04 07:29:39;;;;;;;12.40;7.33;;;10.80;43.40;;;;;;5067658;28;45320;-68
2023/03/04 07:32:07;;;;;;;12.00;7.93;;;10.80;43.70;;;;;;5067184;28;46424;-67
2023/03/04 07:34:34;;;;;;;10.97;8.17;;;10.80;43.40;;;;;;5067252;28;45500;-68
2023/03/04 07:37:03;;;;;;;11.30;7.57;;;10.80;43.40;;;;;;5067422;28;45256;-68
2023/03/04 07:39:30;;;;;;;9.87;8.00;;;10.80;43.40;;;;;;5067642;28;45348;-68
2023/03/04 07:41:56;;;;;;;12.87;8.33;;;10.80;43.30;;;;;;5067211;28;46638;-68
2023/03/04 07:44:23;;;;;;;11.77;7.43;;;10.80;43.30;;;;;;5067254;28;45455;-68
2023/03/04 07:46:50;;;;;;;13.60;7.60;;;10.80;43.30;;;;;;5067149;28;45289;-68
2023/03/04 07:49:17;;;;;;;12.07;7.80;;;10.80;43.20;;;;;;5067651;28;45368;-68
2023/03/04 07:51:44;;;;;;;11.80;7.87;;;10.80;43.20;;;;;;5067070;28;46191;-67
2023/03/04 07:54:12;;;;;;;13.33;7.53;;;10.80;43.30;;;;;;5067898;28;45321;-68
2023/03/04 07:56:39;;;;;;;13.50;7.67;;;10.80;43.20;;;;;;5071142;28;45510;-69
2023/03/04 07:59:05;;;;;;;9.43;6.90;;;10.80;43.20;;;;;;5071796;28;45345;-68
2023/03/04 08:01:33;;;;;;;12.33;7.60;;;10.90;43.20;;;;;;5071193;28;46395;-69
2023/03/04 08:04:00;;;;;;;12.17;6.90;;;10.90;43.80;;;;;;5069927;28;45261;-69
2023/03/04 08:06:29;;;;;;;11.67;7.47;;;10.90;43.20;;;;;;5066806;28;45262;-68
2023/03/04 08:08:56;;;;;;;10.67;7.20;;;10.90;43.20;;;;;;5067594;28;45307;-68
2023/03/04 08:11:25;;;;;;;13.03;7.97;;;10.90;43.30;;;;;;5067126;28;46728;-68
2023/03/04 08:13:52;;;;;;;9.67;6.43;;;10.90;43.30;;;;;;5066995;28;45206;-68
2023/03/04 08:16:20;;;;;;;9.90;6.83;;;10.90;43.30;;;;;;5066783;28;45302;-68
2023/03/04 08:18:48;;;;;;;11.10;7.17;;;10.90;43.20;;;;;;5067226;28;45387;-68
2023/03/04 08:21:17;;;;;;;10.37;6.97;;;10.90;43.20;;;;;;5066729;28;46727;-68
2023/03/04 08:23:44;;;;;;;10.23;7.40;;;10.90;43.20;;;;;;5067048;28;45388;-68
2023/03/04 08:26:11;;;;;;;12.47;7.47;;;10.90;43.10;;;;;;5066875;28;45380;-69
2023/03/04 08:28:40;;;;;;;12.17;6.67;;;10.90;43.10;;;;;;5067030;28;45465;-68
2023/03/04 08:31:06;;;;;;;12.27;6.63;;;10.90;43.10;;;;;;5066498;28;47295;-68
2023/03/04 08:33:33;;;;;;;13.73;6.90;;;10.90;43.10;;;;;;5066511;28;45338;-68
2023/03/04 08:36:00;;;;;;;11.73;7.33;;;10.90;43.10;;;;;;5066484;28;45495;-69
2023/03/04 08:38:27;;;;;;;15.37;7.37;;;10.90;43.10;;;;;;5066753;28;45460;-68
2023/03/04 08:40:54;;;;;;;11.53;6.80;;;10.90;43.10;;;;;;5066231;28;46386;-68
2023/03/04 08:43:21;;;;;;;12.90;6.93;;;10.90;43.10;;;;;;5066317;28;45254;-68
2023/03/04 08:45:49;;;;;;;14.43;8.00;;;10.90;43.20;;;;;;5066464;28;45279;-68
2023/03/04 08:48:16;;;;;;;11.37;7.67;;;10.90;43.20;;;;;;5066387;28;45330;-68
2023/03/04 08:50:43;;;;;;;12.30;6.77;;;10.90;43.20;;;;;;5065922;28;46682;-68
2023/03/04 08:53:10;;;;;;;13.07;7.50;;;10.90;43.30;;;;;;5066086;28;45199;-68
2023/03/04 08:55:38;;;;;;;13.43;7.83;;;10.90;43.20;;;;;;5065991;28;45372;-68
2023/03/04 08:58:04;;;;;;;12.77;7.77;;;10.90;43.20;;;;;;5066358;28;45407;-68
2023/03/04 09:00:31;;;;;;;14.43;7.93;;;10.90;43.30;;;;;;5066030;28;45608;-68
2023/03/04 09:02:59;;;;;;;13.60;8.03;;;10.90;43.30;;;;;;5065864;28;45383;-68
2023/03/04 09:05:26;;;;;;;16.87;8.87;;;10.90;43.30;;;;;;5066005;28;45199;-68
2023/03/04 09:07:54;;;;;;;13.70;8.10;;;10.90;43.40;;;;;;5066041;28;45226;-68
2023/03/04 09:10:20;;;;;;;16.97;9.13;;;10.90;43.30;;;;;;5065655;28;46677;-68
2023/03/04 09:12:47;;;;;;;14.03;8.00;;;10.90;43.40;;;;;;5065764;28;45373;-68
2023/03/04 09:15:14;;;;;;;15.63;8.87;;;10.90;43.40;;;;;;5065466;28;45451;-68
2023/03/04 09:17:41;;;;;;;15.70;8.27;;;10.90;43.30;;;;;;5064942;28;45297;-68
2023/03/04 09:20:11;;;;;;;15.90;9.23;;;10.90;43.30;;;;;;5065748;28;46346;-68
2023/03/04 09:22:38;;;;;;;15.67;9.40;;;10.90;43.50;;;;;;5066328;28;45417;-68
2023/03/04 09:25:06;;;;;;;16.97;10.03;;;10.90;43.50;;;;;;5066202;28;45267;-68
2023/03/04 09:27:32;;;;;;;18.17;9.53;;;10.90;43.40;;;;;;5066468;28;45331;-68
2023/03/04 09:29:59;;;;;;;16.07;9.20;;;10.90;43.40;;;;;;5065826;28;48290;-68
2023/03/04 09:32:27;;;;;;;18.67;9.00;;;10.90;43.50;;;;;;5067115;28;45424;-68
2023/03/04 09:35:02;;;;;;;16.93;9.40;;;10.90;43.50;;;;;;5066481;28;45252;-68
2023/03/04 09:37:30;;;;;;;19.77;10.10;;;10.90;43.50;;;;;;5066554;28;45382;-67
2023/03/04 09:40:03;;;;;;;20.87;10.47;;;10.90;43.60;;;;;;5066284;28;46705;-69
2023/03/04 09:42:33;;;;;;;16.60;10.13;;;10.90;43.50;;;;;;5066879;28;45358;-68
2023/03/04 09:45:00;;;;;;;17.80;9.93;;;10.90;43.50;;;;;;5063910;28;45313;-68
2023/03/04 09:47:27;;;;;;;18.17;9.67;;;11.00;43.60;;;;;;5067331;28;45388;-71
2023/03/04 09:49:56;;;;;;;17.27;9.27;;;10.90;43.50;;;;;;5067131;28;46162;-69
2023/03/04 09:52:30;;;;;;;16.77;9.13;;;11.00;43.40;;;;;;5066123;28;45347;-68
2023/03/04 09:55:03;;;;;;;18.70;10.13;;;11.00;43.40;;;;;;5066210;28;45328;-68
2023/03/04 09:57:47;;;;;;;19.17;9.87;;;11.00;43.40;;;;;;5066072;28;45353;-68
2023/03/04 10:00:18;;;;;;;19.63;10.80;;;11.00;43.40;;;;;;5083041;27;45364;-70
2023/03/04 10:02:50;;;;;;;18.50;10.07;;;11.00;43.60;;;;;;5085863;28;45529;-69
2023/03/04 10:05:21;;;;;;;18.80;10.17;;;11.00;43.80;;;;;;5084289;27;45506;-69
2023/03/04 10:07:53;;;;;;;18.07;9.50;;;11.00;43.60;;;;;;5069294;28;45685;-70
2023/03/04 10:10:24;;;;;;;18.30;10.30;;;11.00;43.60;;;;;;5083172;28;45731;-68
2023/03/04 10:12:53;;;;;;;18.03;10.17;;;11.00;43.50;;;;;;5085497;28;45390;-68
2023/03/04 10:15:23;;;;;;;16.50;9.50;;;11.00;43.40;;;;;;5085570;28;45254;-68
2023/03/04 10:17:59;;;;;;;17.93;9.87;;;11.00;43.30;;;;;;5069347;28;45527;-68
2023/03/04 10:20:28;;;;;;;19.83;9.87;;;11.00;43.20;;;;;;5085754;28;45315;-68
2023/03/04 10:23:00;;;;;;;18.33;10.33;;;11.10;43.20;;;;;;5085312;28;45390;-69
2023/03/04 10:25:28;;;;;;;20.13;9.63;;;11.10;43.30;;;;;;5086202;28;45343;-69
2023/03/04 10:27:56;;;;;;;20.70;10.90;;;11.10;43.20;;;;;;5086200;27;45293;-67
2023/03/04 10:30:31;;;;;;;16.73;9.47;;;11.10;43.10;;;;;;5089272;28;47429;-69
2023/03/04 10:32:58;;;;;;;20.03;10.33;;;11.20;43.20;;;;;;5088751;28;45370;-68
2023/03/04 10:35:27;;;;;;;16.50;9.30;;;11.20;43.40;;;;;;5089155;28;45304;-68
2023/03/04 10:37:54;;;;;;;25.50;13.33;;;11.10;43.30;;;;;;5089131;28;45479;-68
2023/03/04 10:40:26;;;;;;;23.67;13.37;;;11.10;44.20;;;;;;5088733;28;46643;-67
2023/03/04 10:42:53;;;;;;;30.73;14.80;;;11.10;44.40;;;;;;5088700;28;45310;-67
2023/03/04 10:45:21;;;;;;;33.23;15.47;;;11.10;44.30;;;;;;5089053;28;45325;-68
2023/03/04 10:47:58;;;;;;;35.17;16.73;;;11.10;44.90;;;;;;5071856;27;45473;-69
2023/03/04 10:50:32;;;;;;;44.43;24.03;;;11.00;45.10;;;;;;5087445;27;47919;-69
2023/03/04 10:52:59;;;;;;;34.27;15.73;;;11.10;45.10;;;;;;5089257;28;45271;-69
2023/03/04 10:55:41;;;;;;;31.87;15.37;;;11.00;45.00;;;;;;5089410;28;45269;-69
2023/03/04 10:58:13;;;;;;;29.73;15.00;;;11.00;44.90;;;;;;5088930;28;45448;-68
2023/03/04 11:00:40;;;;;;;28.30;13.97;;;11.00;44.60;;;;;;5088431;28;45238;-68
2023/03/04 11:03:25;;;;;;;30.13;14.33;;;11.10;44.40;;;;;;5091539;27;45329;-70
2023/03/04 11:05:53;;;;;;;25.67;13.90;;;11.10;44.10;;;;;;5109344;27;45229;-69
2023/03/04 11:08:21;;;;;;;27.07;13.33;;;11.10;44.00;;;;;;5109523;27;45558;-69
2023/03/04 11:10:51;;;;;;;30.20;13.83;;;11.10;43.90;;;;;;5108973;27;45363;-71
2023/03/04 11:13:18;;;;;;;23.80;13.57;;;11.20;43.90;;;;;;5109255;27;45315;-68
2023/03/04 11:15:50;;;;;;;25.90;13.20;;;11.10;43.70;;;;;;5108928;27;45286;-69
2023/03/04 11:18:17;;;;;;;25.03;13.03;;;11.20;43.80;;;;;;5109064;27;45470;-68
2023/03/04 11:20:47;;;;;;;28.43;13.50;;;11.20;43.60;;;;;;5106099;27;46592;-68
2023/03/04 11:23:14;;;;;;;22.17;11.90;;;11.20;43.60;;;;;;5108746;27;45261;-68
2023/03/04 11:25:43;;;;;;;28.87;13.93;;;11.30;43.60;;;;;;5108923;27;45376;-68
2023/03/04 11:28:14;;;;;;;24.17;12.50;;;11.30;43.50;;;;;;5108948;27;45522;-68
2023/03/04 11:30:42;;;;;;;22.73;12.10;;;11.40;43.60;;;;;;5108870;27;46365;-68
2023/03/04 11:33:19;;;;;;;24.50;12.57;;;11.40;43.40;;;;;;5108888;27;45476;-67
2023/03/04 11:35:58;;;;;;;25.93;12.73;;;11.50;43.40;;;;;;5108932;27;45346;-68
2023/03/04 11:38:29;;;;;;;27.77;14.27;;;11.50;43.30;;;;;;5109028;27;45242;-68
2023/03/04 11:40:57;;;;;;;22.03;12.27;;;11.60;43.20;;;;;;5107601;27;45328;-68
2023/03/04 11:43:29;;;;;;;24.67;12.43;;;11.70;43.10;;;;;;5108092;27;45327;-69
2023/03/04 11:46:10;;;;;;;22.43;12.37;;;11.80;43.00;;;;;;5108735;27;45309;-68
2023/03/04 11:48:45;;;;;;;21.60;11.37;;;11.90;42.80;;;;;;5108543;27;45302;-68
2023/03/04 11:51:17;;;;;;;23.27;12.47;;;12.00;42.60;;;;;;5107991;27;45301;-68
2023/03/04 11:53:48;;;;;;;25.43;12.33;;;12.10;42.40;;;;;;5108257;27;45221;-68
2023/03/04 11:56:27;;;;;;;23.77;11.90;;;12.10;42.40;;;;;;5108510;27;45386;-68
2023/03/04 11:59:10;;;;;;;22.23;11.60;;;12.30;42.20;;;;;;5108559;27;45356;-69
2023/03/04 12:01:40;;;;;;;21.73;11.13;;;12.40;42.10;;;;;;5107908;27;45257;-68
2023/03/04 12:04:34;;;;;;;23.00;12.23;;;12.50;42.00;;;;;;5108326;27;45343;-68
2023/03/04 12:07:09;;;;;;;23.63;11.20;;;12.60;41.70;;;;;;5108424;27;45283;-68
2023/03/04 12:09:40;;;;;;;20.33;10.90;;;12.70;41.60;;;;;;5105963;27;45315;-69
2023/03/04 12:12:19;;;;;;;22.83;11.07;;;12.90;41.30;;;;;;5085781;28;46628;-67
2023/03/04 12:14:49;;;;;;;18.87;11.37;;;13.00;41.10;;;;;;5073079;28;45457;-66
2023/03/04 12:17:36;;;;;;;25.50;12.07;;;13.10;40.90;;;;;;5079696;28;45464;-69
2023/03/04 12:20:19;;;;;;;20.70;10.70;;;13.30;40.90;;;;;;5072395;28;45478;-68
2023/03/04 12:22:47;;;;;;;26.87;11.37;;;13.40;40.60;;;;;;5087096;28;45436;-68
2023/03/04 12:25:29;;;;;;;20.10;10.97;;;13.40;40.70;;;;;;5086341;28;45309;-65
2023/03/04 12:28:01;;;;;;;20.23;10.83;;;13.50;40.40;;;;;;5085234;28;45432;-73
2023/03/04 12:30:40;;;;;;;21.10;11.03;;;13.60;40.10;;;;;;5083595;28;45657;-66
2023/03/04 12:33:12;;;;;;;19.87;10.50;;;13.80;40.10;;;;;;5086093;28;46399;-66
2023/03/04 12:35:41;;;;;;;21.90;11.27;;;13.80;40.50;;;;;;5083294;28;45420;-66
2023/03/04 12:38:34;;;;;;;17.20;10.03;;;13.90;40.30;;;;;;5074665;28;45396;-66
2023/03/04 12:41:18;;;;;;;19.63;10.37;;;14.00;40.00;;;;;;5078657;27;45484;-68